createdAt,value
2023-05-14T00:00:02.193Z,1011.6437619372447
2023-05-14T00:15:01.808Z,1011.5652935518582
2023-05-14T00:30:02.466Z,1011.3857876699497
2023-05-14T00:45:02.124Z,1011.3467836839386
2023-05-14T01:00:01.766Z,1011.2211108311593
2023-05-14T01:15:02.347Z,1011.2366734395198
2023-05-14T01:30:02.040Z,1011.2121831547904
2023-05-14T01:45:01.691Z,1011.1357343278012
2023-05-14T02:00:02.326Z,1011.204033015362
2023-05-14T02:15:01.987Z,1010.9923680923818
2023-05-14T02:30:01.633Z,1010.8491132057798
2023-05-14T02:45:02.211Z,1010.6313993508352
2023-05-14T03:00:01.803Z,1010.7251619926752
2023-05-14T03:15:01.869Z,1010.6259375228993
2023-05-14T03:30:02.519Z,1010.6188880792586
2023-05-14T03:45:02.126Z,1010.5340782029364
2023-05-14T04:00:01.782Z,1010.6938649920205
2023-05-14T04:15:02.416Z,1010.5983920169587
2023-05-14T04:30:01.596Z,1010.5732770325627
2023-05-14T04:45:02.187Z,1010.6108530023371
2023-05-14T05:00:01.940Z,1010.553757181649
2023-05-14T05:15:01.743Z,1010.6289357258719
2023-05-14T05:30:02.411Z,1010.6953209265448
2023-05-14T05:45:02.030Z,1010.7391905102528
2023-05-14T06:00:01.663Z,1010.7887605471809
2023-05-14T06:15:02.275Z,1010.7597160282032
2023-05-14T06:30:01.922Z,1010.8939239816624
2023-05-14T06:45:02.511Z,1010.7969111610058
2023-05-14T07:00:03.712Z,1010.7933243925244
2023-05-14T07:15:01.618Z,1010.743124225558
2023-05-14T07:30:02.324Z,1010.6475297801959
2023-05-14T07:45:02.002Z,1010.5302486129235
2023-05-14T08:00:01.650Z,1010.5532332243502
2023-05-14T08:15:02.276Z,1010.487119434669
2023-05-14T08:30:01.942Z,1010.4399756181102
2023-05-14T08:45:01.581Z,1010.4056443192432
2023-05-14T09:00:02.221Z,1010.183637842441
2023-05-14T09:15:01.869Z,1010.0619406623645
2023-05-14T09:30:02.528Z,1009.9649790186347
2023-05-14T09:45:02.171Z,1009.9738724260617
2023-05-14T10:00:01.839Z,1009.829971167935
2023-05-14T10:15:02.470Z,1009.7188559186293
2023-05-14T10:30:02.101Z,1009.5164992046732
2023-05-14T10:45:01.700Z,1009.432183678484
2023-05-14T11:00:02.333Z,1009.2162002782002
2023-05-14T11:15:01.969Z,1009.1894719719417
2023-05-14T11:30:01.654Z,1009.0273030733728
2023-05-14T11:45:02.286Z,1008.9316518113312
2023-05-14T12:00:01.889Z,1008.770508468095
2023-05-14T12:15:02.522Z,1008.6795925060989
2023-05-14T12:30:19.030Z,1008.4546643500164
2023-05-14T12:45:02.064Z,1008.3032615950086
2023-05-14T13:00:01.709Z,1008.2385464616162
2023-05-14T13:15:02.313Z,1008.0052769061035
2023-05-14T13:30:01.988Z,1007.7824339920388
2023-05-14T13:45:01.644Z,1007.6805927111184
2023-05-14T14:00:02.275Z,1007.5747427143364
2023-05-14T14:15:01.895Z,1007.3595985240761
2023-05-14T14:30:02.546Z,1007.2384486507849
2023-05-14T14:45:02.146Z,1007.1957289828887
2023-05-14T15:00:02.715Z,1007.171906150684
2023-05-14T15:15:02.539Z,1007.0625319189243
2023-05-14T15:30:02.288Z,1007.088517890247
2023-05-14T15:45:01.932Z,1006.9525756951194
2023-05-14T16:00:01.601Z,1006.8218454801914
2023-05-14T16:15:02.243Z,1006.8567110663571
2023-05-14T16:30:01.940Z,1006.7303473830087
2023-05-14T16:45:01.610Z,1006.6955164209553
2023-05-14T17:00:02.329Z,1006.6620476521666
2023-05-14T17:15:04.467Z,1006.6209336802582
2023-05-14T17:30:02.096Z,1006.6604126634114
2023-05-14T17:45:01.771Z,1006.7099721150886
2023-05-14T18:00:02.455Z,1006.8034700384954
2023-05-14T18:15:02.051Z,1006.8591677308334
2023-05-14T18:30:01.758Z,1006.8423997223966
2023-05-14T18:45:02.359Z,1006.9504693181432
2023-05-14T19:00:02.042Z,1006.8900660286812
2023-05-14T19:15:01.727Z,1006.9331395563514
2023-05-14T19:30:02.333Z,1006.9785505160835
2023-05-14T19:45:01.979Z,1007.0357902697767
2023-05-14T20:00:01.611Z,1007.128998568281
2023-05-14T20:15:02.257Z,1007.0654781160442
2023-05-14T20:30:01.945Z,1006.9821440028135
2023-05-14T20:45:01.549Z,1006.9598864373653
2023-05-14T21:00:02.150Z,1006.9375846232515
2023-05-14T21:15:01.792Z,1006.7914571024412
2023-05-14T21:30:02.457Z,1006.8459782225979
2023-05-14T21:45:02.124Z,1006.6232546031231
2023-05-14T22:00:01.765Z,1006.4770801783029
2023-05-14T22:15:02.400Z,1006.3728399737473
2023-05-14T22:30:02.023Z,1006.356907748583
2023-05-14T22:45:01.700Z,1006.3567134665187
2023-05-14T23:00:02.349Z,1006.1870128371017
2023-05-14T23:15:01.975Z,1006.0795928724153
2023-05-14T23:30:01.700Z,1006.0257489256143
2023-05-14T23:45:02.352Z,1005.8819526664583
